Time;durP1;ratioP1;P1;durP2;ratioP2;P2;SDS_P1;SDS_P2;PMS_P1;PMS_P2;Temp;Humidity;BMP_temperature;BMP_pressure;BME280_temperature;BME280_humidity;BME280_pressure;Samples;Min_cycle;Max_cycle;Signal;HPM_P1;HPM_P2
2022/01/27 00:01:38;;;;;;;37.28;17.42;;;;;;;;;;5079938;28;20197;-76
2022/01/27 00:04:13;;;;;;;30.90;15.77;;;;;;;;;;5086613;28;20288;-76
2022/01/27 00:06:41;;;;;;;27.20;17.38;;;;;;;;;;5089980;28;20199;-76
2022/01/27 00:09:18;;;;;;;29.33;14.68;;;;;;;;;;5080585;28;20205;-76
2022/01/27 00:11:47;;;;;;;27.33;16.38;;;;;;;;;;5080686;28;20330;-77
2022/01/27 00:14:16;;;;;;;26.35;15.32;;;;;;;;;;5078131;28;20186;-77
2022/01/27 00:16:53;;;;;;;24.30;15.63;;;;;;;;;;5088395;28;20228;-76
2022/01/27 00:19:20;;;;;;;32.25;17.73;;;;;;;;;;5083989;28;20194;-76
2022/01/27 00:21:47;;;;;;;35.35;18.63;;;;;;;;;;5083457;28;20194;-76
2022/01/27 00:24:16;;;;;;;27.50;15.55;;;;;;;;;;5071653;28;20215;-76
2022/01/27 00:26:43;;;;;;;28.33;17.15;;;;;;;;;;5071811;28;20289;-75
2022/01/27 00:29:10;;;;;;;29.00;16.85;;;;;;;;;;5070587;28;20205;-76
2022/01/27 00:31:37;;;;;;;33.65;16.90;;;;;;;;;;5076719;28;20209;-76
2022/01/27 00:34:04;;;;;;;29.95;16.27;;;;;;;;;;5088788;28;20194;-75
2022/01/27 00:36:31;;;;;;;27.17;15.35;;;;;;;;;;5074143;28;20681;-75
2022/01/27 00:38:58;;;;;;;29.90;16.80;;;;;;;;;;5070664;28;20202;-75
2022/01/27 00:41:27;;;;;;;29.80;17.00;;;;;;;;;;5085395;28;20197;-75
2022/01/27 00:43:54;;;;;;;36.92;18.42;;;;;;;;;;5074240;28;20194;-75
2022/01/27 00:46:21;;;;;;;25.90;17.05;;;;;;;;;;5084715;28;20622;-75
2022/01/27 00:48:49;;;;;;;31.27;19.33;;;;;;;;;;5088821;28;20204;-75
2022/01/27 00:51:21;;;;;;;27.42;16.98;;;;;;;;;;5070830;28;20210;-75
2022/01/27 00:53:52;;;;;;;30.30;18.17;;;;;;;;;;5073916;28;20599;-75
2022/01/27 00:56:24;;;;;;;33.03;17.83;;;;;;;;;;5074784;28;20214;-75
2022/01/27 00:59:05;;;;;;;26.10;15.90;;;;;;;;;;5088767;28;20199;-75
2022/01/27 01:01:37;;;;;;;25.02;16.58;;;;;;;;;;5086523;28;20201;-75
2022/01/27 01:04:07;;;;;;;25.65;15.13;;;;;;;;;;5079819;28;20247;-75
2022/01/27 01:06:40;;;;;;;26.88;17.52;;;;;;;;;;5070112;28;20194;-76
2022/01/27 01:12:25;;;;;;;25.85;16.20;;;;;;;;;;5084320;28;20719;-75
2022/01/27 01:14:55;;;;;;;36.33;17.38;;;;;;;;;;5082091;28;20194;-76
2022/01/27 01:17:33;;;;;;;28.02;16.08;;;;;;;;;;5089863;28;20221;-76
2022/01/27 01:31:10;;;;;;;31.98;16.02;;;;;;;;;;5076192;28;20271;-75
2022/01/27 01:33:39;;;;;;;34.85;18.00;;;;;;;;;;5085285;28;20189;-75
2022/01/27 01:36:14;;;;;;;27.50;16.42;;;;;;;;;;5092080;28;20665;-76
2022/01/27 01:38:41;;;;;;;30.02;18.55;;;;;;;;;;5094399;28;20197;-76
2022/01/27 01:41:08;;;;;;;26.20;17.80;;;;;;;;;;5080687;28;20550;-76
2022/01/27 01:43:35;;;;;;;26.13;16.63;;;;;;;;;;5077873;28;20200;-76
2022/01/27 01:46:03;;;;;;;29.80;18.75;;;;;;;;;;5080337;28;20209;-76
2022/01/27 01:48:30;;;;;;;30.38;19.75;;;;;;;;;;5082757;28;20224;-76
2022/01/27 01:50:58;;;;;;;27.38;17.27;;;;;;;;;;5091324;28;20193;-76
2022/01/27 01:53:26;;;;;;;28.15;18.20;;;;;;;;;;5093350;28;20285;-76
2022/01/27 01:55:53;;;;;;;27.95;18.27;;;;;;;;;;5083361;28;20233;-76
2022/01/27 01:58:20;;;;;;;31.25;17.98;;;;;;;;;;5079086;28;20197;-76
2022/01/27 02:00:47;;;;;;;25.98;18.45;;;;;;;;;;5090458;28;20657;-76
2022/01/27 02:03:16;;;;;;;27.27;18.38;;;;;;;;;;5093663;28;20614;-76
2022/01/27 02:05:48;;;;;;;25.13;16.00;;;;;;;;;;5080296;28;20687;-76
2022/01/27 02:08:33;;;;;;;30.30;17.45;;;;;;;;;;5087258;28;20226;-77
2022/01/27 02:19:19;;;;;;;26.60;16.92;;;;;;;;;;5092889;28;20216;-76
2022/01/27 02:21:48;;;;;;;26.98;18.10;;;;;;;;;;5087149;28;20252;-77
2022/01/27 02:24:16;;;;;;;27.08;16.60;;;;;;;;;;5075546;28;20194;-76
2022/01/27 02:26:43;;;;;;;25.77;17.23;;;;;;;;;;5087725;28;20197;-76
2022/01/27 02:29:10;;;;;;;25.48;17.00;;;;;;;;;;5086488;28;20190;-76
2022/01/27 02:31:37;;;;;;;24.52;15.90;;;;;;;;;;5088936;28;20197;-77
2022/01/27 02:34:06;;;;;;;24.58;16.00;;;;;;;;;;5089661;28;20194;-76
2022/01/27 02:36:33;;;;;;;28.15;16.23;;;;;;;;;;5085392;28;20241;-76
2022/01/27 02:39:02;;;;;;;25.45;15.73;;;;;;;;;;5088451;28;20602;-76
2022/01/27 02:41:32;;;;;;;24.80;17.50;;;;;;;;;;5092785;28;20557;-77
2022/01/27 02:43:59;;;;;;;27.40;16.13;;;;;;;;;;5073394;28;20232;-76
2022/01/27 02:46:27;;;;;;;28.48;17.95;;;;;;;;;;5079638;28;20626;-76
2022/01/27 02:48:54;;;;;;;28.85;16.50;;;;;;;;;;5078943;28;20201;-76
2022/01/27 02:51:21;;;;;;;26.23;17.13;;;;;;;;;;5091288;28;20209;-76
2022/01/27 02:53:48;;;;;;;25.88;16.38;;;;;;;;;;5090977;28;20206;-77
2022/01/27 02:56:17;;;;;;;27.77;17.80;;;;;;;;;;5075453;28;20214;-77
2022/01/27 02:58:44;;;;;;;27.25;17.42;;;;;;;;;;5075563;28;20229;-75
2022/01/27 03:01:11;;;;;;;26.50;16.60;;;;;;;;;;5089092;28;20194;-75
2022/01/27 03:03:38;;;;;;;27.10;16.40;;;;;;;;;;5092191;28;20189;-76
2022/01/27 03:06:05;;;;;;;24.08;16.92;;;;;;;;;;5084435;28;20186;-75
2022/01/27 03:08:32;;;;;;;24.27;15.98;;;;;;;;;;5089260;28;20205;-76
2022/01/27 03:11:03;;;;;;;30.25;16.88;;;;;;;;;;5091695;28;20560;-76
2022/01/27 03:13:31;;;;;;;21.30;14.85;;;;;;;;;;5089847;28;20189;-76
2022/01/27 03:15:59;;;;;;;27.75;17.48;;;;;;;;;;5081016;28;20202;-75
2022/01/27 03:18:26;;;;;;;23.27;16.30;;;;;;;;;;5081984;28;20652;-77
2022/01/27 03:20:53;;;;;;;27.80;17.15;;;;;;;;;;5080521;28;20198;-77
2022/01/27 03:23:20;;;;;;;27.98;16.80;;;;;;;;;;5088431;28;20613;-76
2022/01/27 03:25:48;;;;;;;24.08;15.85;;;;;;;;;;5090404;28;20250;-77
2022/01/27 03:28:17;;;;;;;23.95;16.95;;;;;;;;;;5074935;28;20230;-77
2022/01/27 03:30:46;;;;;;;26.77;15.95;;;;;;;;;;5086371;28;20290;-76
2022/01/27 03:33:13;;;;;;;24.00;16.05;;;;;;;;;;5079194;28;20205;-75
2022/01/27 03:35:40;;;;;;;24.02;15.32;;;;;;;;;;5075462;28;20202;-76
2022/01/27 03:38:07;;;;;;;26.02;17.80;;;;;;;;;;5073457;28;20692;-75
2022/01/27 03:40:34;;;;;;;25.05;15.10;;;;;;;;;;5084815;28;20255;-75
2022/01/27 03:43:06;;;;;;;27.75;15.55;;;;;;;;;;5079564;28;20209;-75
2022/01/27 03:45:33;;;;;;;25.73;16.10;;;;;;;;;;5081170;28;20210;-75
2022/01/27 03:48:01;;;;;;;23.88;14.80;;;;;;;;;;5091593;28;20279;-75
2022/01/27 03:50:29;;;;;;;21.45;13.45;;;;;;;;;;5090160;28;20650;-76
2022/01/27 03:52:56;;;;;;;24.38;15.82;;;;;;;;;;5085908;28;20193;-76
2022/01/27 03:55:23;;;;;;;24.55;14.93;;;;;;;;;;5089549;28;20653;-76
2022/01/27 03:57:50;;;;;;;26.35;15.07;;;;;;;;;;5084873;28;20221;-77
2022/01/27 04:00:17;;;;;;;24.13;15.15;;;;;;;;;;5079081;28;20239;-76
2022/01/27 04:02:55;;;;;;;26.25;16.05;;;;;;;;;;5083832;28;20197;-76
2022/01/27 04:05:24;;;;;;;22.77;14.40;;;;;;;;;;5088266;28;20284;-75
2022/01/27 04:07:57;;;;;;;27.15;14.73;;;;;;;;;;5073989;28;20201;-75
2022/01/27 04:10:24;;;;;;;23.17;13.90;;;;;;;;;;5083186;28;20233;-76
2022/01/27 04:12:51;;;;;;;26.20;16.55;;;;;;;;;;5085747;28;20284;-76
2022/01/27 04:15:19;;;;;;;23.52;14.98;;;;;;;;;;5087643;28;20247;-76
2022/01/27 04:17:46;;;;;;;24.80;14.73;;;;;;;;;;5087904;28;20233;-76
2022/01/27 04:20:13;;;;;;;24.67;14.55;;;;;;;;;;5079656;28;20201;-76
2022/01/27 04:22:41;;;;;;;24.23;16.15;;;;;;;;;;5076335;28;20662;-76
2022/01/27 04:25:09;;;;;;;23.00;15.05;;;;;;;;;;5085954;28;20543;-76
2022/01/27 04:27:39;;;;;;;25.33;14.40;;;;;;;;;;5083015;28;20193;-76
2022/01/27 04:30:11;;;;;;;21.67;13.80;;;;;;;;;;5072088;28;20227;-76
2022/01/27 04:32:45;;;;;;;20.33;13.90;;;;;;;;;;5084198;28;20259;-77
2022/01/27 04:35:15;;;;;;;19.95;13.68;;;;;;;;;;5090285;28;20190;-76
2022/01/27 04:37:55;;;;;;;20.67;12.30;;;;;;;;;;5081136;28;20226;-76
2022/01/27 04:40:30;;;;;;;24.50;13.05;;;;;;;;;;5070466;28;20194;-76
2022/01/27 04:43:03;;;;;;;27.55;15.40;;;;;;;;;;5075564;28;20203;-76
2022/01/27 04:45:37;;;;;;;22.20;15.73;;;;;;;;;;5077168;28;20237;-76
2022/01/27 04:48:10;;;;;;;25.08;16.10;;;;;;;;;;5090938;28;20219;-76
2022/01/27 04:50:38;;;;;;;23.90;13.23;;;;;;;;;;5083874;28;20632;-76
2022/01/27 04:53:11;;;;;;;21.83;15.38;;;;;;;;;;5084908;28;20198;-76
2022/01/27 04:55:38;;;;;;;26.77;14.85;;;;;;;;;;5088869;28;20668;-76
2022/01/27 04:58:13;;;;;;;21.30;14.43;;;;;;;;;;5082057;28;20579;-76
2022/01/27 05:00:40;;;;;;;20.75;13.98;;;;;;;;;;5081982;28;20225;-76
2022/01/27 05:03:17;;;;;;;23.92;13.23;;;;;;;;;;5090304;28;20201;-76
2022/01/27 05:05:44;;;;;;;24.58;15.80;;;;;;;;;;5073712;28;20580;-76
2022/01/27 05:08:17;;;;;;;19.92;12.73;;;;;;;;;;5076291;28;20201;-76
2022/01/27 05:10:53;;;;;;;24.85;14.13;;;;;;;;;;5089375;28;20661;-76
2022/01/27 05:13:23;;;;;;;23.65;14.77;;;;;;;;;;5076590;28;20206;-76
2022/01/27 05:15:50;;;;;;;23.60;13.88;;;;;;;;;;5076417;28;20197;-76
2022/01/27 05:18:17;;;;;;;23.58;13.88;;;;;;;;;;5090861;28;20209;-76
2022/01/27 05:20:44;;;;;;;22.67;13.57;;;;;;;;;;5087136;28;20202;-76
2022/01/27 05:23:13;;;;;;;23.02;14.40;;;;;;;;;;5070882;28;20194;-76
2022/01/27 05:25:41;;;;;;;20.55;13.70;;;;;;;;;;5085680;28;20671;-77
2022/01/27 05:28:08;;;;;;;21.98;13.70;;;;;;;;;;5075226;28;20243;-76
2022/01/27 05:30:35;;;;;;;21.45;13.35;;;;;;;;;;5084648;28;20674;-77
2022/01/27 05:33:02;;;;;;;23.92;15.23;;;;;;;;;;5088025;28;20197;-76
2022/01/27 05:35:29;;;;;;;19.30;13.25;;;;;;;;;;5087882;28;20201;-77
2022/01/27 05:37:56;;;;;;;20.13;12.60;;;;;;;;;;5076969;28;20224;-76
2022/01/27 05:40:25;;;;;;;22.85;13.10;;;;;;;;;;5090261;28;20186;-75
2022/01/27 05:42:52;;;;;;;19.20;12.45;;;;;;;;;;5079956;28;20576;-75
2022/01/27 05:45:19;;;;;;;21.60;14.68;;;;;;;;;;5089281;28;20220;-75
2022/01/27 05:47:46;;;;;;;20.70;12.82;;;;;;;;;;5086272;28;20201;-76
2022/01/27 05:50:13;;;;;;;26.58;14.00;;;;;;;;;;5076062;28;20198;-75
2022/01/27 05:52:40;;;;;;;20.75;13.00;;;;;;;;;;5070856;28;20195;-76
2022/01/27 05:55:08;;;;;;;20.95;13.85;;;;;;;;;;5071131;28;20202;-76
2022/01/27 05:57:36;;;;;;;19.85;12.60;;;;;;;;;;5078144;28;20214;-77
2022/01/27 06:00:05;;;;;;;21.25;12.98;;;;;;;;;;5087465;28;20557;-77
2022/01/27 06:02:32;;;;;;;21.65;14.60;;;;;;;;;;5091034;28;20242;-76
2022/01/27 06:05:02;;;;;;;20.63;13.93;;;;;;;;;;5087911;28;20205;-77
2022/01/27 06:07:29;;;;;;;19.52;12.35;;;;;;;;;;5093333;28;20645;-76
2022/01/27 06:09:56;;;;;;;22.05;12.65;;;;;;;;;;5092327;28;20208;-76
2022/01/27 06:12:23;;;;;;;23.52;12.57;;;;;;;;;;5086176;28;20190;-77
2022/01/27 06:14:52;;;;;;;21.98;12.95;;;;;;;;;;5075383;28;20198;-76
2022/01/27 06:17:19;;;;;;;20.60;13.15;;;;;;;;;;5084354;28;20267;-76
2022/01/27 06:19:46;;;;;;;20.00;12.40;;;;;;;;;;5092720;28;20194;-76
2022/01/27 06:22:13;;;;;;;19.17;13.00;;;;;;;;;;5083499;28;20199;-76
2022/01/27 06:24:40;;;;;;;19.05;12.20;;;;;;;;;;5092712;28;20208;-76
2022/01/27 06:27:08;;;;;;;19.65;11.75;;;;;;;;;;5088655;28;20555;-76
2022/01/27 06:29:35;;;;;;;19.25;11.52;;;;;;;;;;5074880;28;20202;-77
2022/01/27 06:32:04;;;;;;;18.20;12.57;;;;;;;;;;5081368;28;20652;-77
2022/01/27 06:34:31;;;;;;;24.20;12.98;;;;;;;;;;5086412;28;20599;-77
2022/01/27 06:36:58;;;;;;;22.15;11.90;;;;;;;;;;5081803;28;20198;-77
2022/01/27 06:39:25;;;;;;;20.85;12.02;;;;;;;;;;5081281;28;20205;-75
2022/01/27 06:41:53;;;;;;;19.42;12.95;;;;;;;;;;5073925;28;20194;-75
2022/01/27 06:44:20;;;;;;;21.40;12.65;;;;;;;;;;5084653;28;20197;-76
2022/01/27 06:46:47;;;;;;;16.85;10.45;;;;;;;;;;5087755;28;20205;-75
2022/01/27 06:49:16;;;;;;;20.23;12.00;;;;;;;;;;5078820;28;20205;-76
2022/01/27 06:51:44;;;;;;;16.92;11.40;;;;;;;;;;5089175;28;20226;-76
2022/01/27 06:54:11;;;;;;;27.10;12.70;;;;;;;;;;5076799;28;20198;-76
2022/01/27 06:56:38;;;;;;;17.15;11.70;;;;;;;;;;5081899;28;20194;-76
2022/01/27 06:59:05;;;;;;;15.98;11.43;;;;;;;;;;5082469;28;20213;-77
2022/01/27 07:01:32;;;;;;;20.08;12.52;;;;;;;;;;5082708;28;20191;-75
2022/01/27 07:03:59;;;;;;;25.15;13.20;;;;;;;;;;5087076;28;20205;-76
2022/01/27 07:06:28;;;;;;;13.50;10.70;;;;;;;;;;5084613;28;20209;-76
2022/01/27 07:08:55;;;;;;;16.45;12.40;;;;;;;;;;5071674;28;20221;-76
2022/01/27 07:11:22;;;;;;;19.45;13.30;;;;;;;;;;5072694;28;20194;-76
2022/01/27 07:13:49;;;;;;;19.35;11.77;;;;;;;;;;5072684;28;20220;-76
2022/01/27 07:16:16;;;;;;;20.98;13.00;;;;;;;;;;5078450;28;20602;-76
2022/01/27 07:18:43;;;;;;;21.92;13.75;;;;;;;;;;5089071;28;20229;-76
2022/01/27 07:21:10;;;;;;;18.13;10.90;;;;;;;;;;5087644;28;20221;-78
2022/01/27 07:23:39;;;;;;;20.45;11.40;;;;;;;;;;5075151;28;20676;-75
2022/01/27 07:26:07;;;;;;;23.60;13.93;;;;;;;;;;5073228;28;20198;-77
2022/01/27 07:28:34;;;;;;;18.30;12.18;;;;;;;;;;5073566;28;20202;-76
2022/01/27 07:31:03;;;;;;;22.27;12.85;;;;;;;;;;5079998;28;20198;-76
2022/01/27 07:33:30;;;;;;;19.67;12.38;;;;;;;;;;5086346;28;20193;-75
2022/01/27 07:35:57;;;;;;;19.95;12.18;;;;;;;;;;5091567;28;20534;-76
2022/01/27 07:38:26;;;;;;;18.90;12.18;;;;;;;;;;5092617;28;20214;-76
2022/01/27 07:40:54;;;;;;;18.85;11.80;;;;;;;;;;5090199;28;20207;-76
2022/01/27 07:43:22;;;;;;;17.33;12.25;;;;;;;;;;5079815;28;20255;-77
2022/01/27 07:45:50;;;;;;;19.83;14.02;;;;;;;;;;5088127;28;20214;-77
2022/01/27 07:48:17;;;;;;;22.35;13.88;;;;;;;;;;5085057;28;20570;-78
2022/01/27 07:50:45;;;;;;;20.77;13.18;;;;;;;;;;5081926;28;20202;-77
2022/01/27 07:53:12;;;;;;;22.15;12.25;;;;;;;;;;5073625;28;20190;-76
2022/01/27 07:55:39;;;;;;;22.67;12.68;;;;;;;;;;5073807;28;20198;-76
2022/01/27 07:58:08;;;;;;;21.77;11.85;;;;;;;;;;5081440;28;20358;-76
2022/01/27 08:00:35;;;;;;;18.95;12.18;;;;;;;;;;5085836;28;20193;-76
2022/01/27 08:03:02;;;;;;;21.60;13.13;;;;;;;;;;5074165;28;20197;-76
2022/01/27 08:05:29;;;;;;;20.23;12.85;;;;;;;;;;5090485;28;20672;-76
2022/01/27 08:07:56;;;;;;;18.70;13.32;;;;;;;;;;5075277;28;20190;-76
2022/01/27 08:10:23;;;;;;;18.77;11.85;;;;;;;;;;5070919;28;20198;-76
2022/01/27 08:12:50;;;;;;;20.35;12.55;;;;;;;;;;5074244;28;20271;-76
2022/01/27 08:15:22;;;;;;;23.08;14.18;;;;;;;;;;5077485;28;20200;-76
2022/01/27 08:17:49;;;;;;;19.45;12.65;;;;;;;;;;5085314;28;20209;-76
2022/01/27 08:20:16;;;;;;;18.13;13.45;;;;;;;;;;5083860;28;20217;-76
2022/01/27 08:22:44;;;;;;;15.82;12.52;;;;;;;;;;5084742;28;20194;-75
2022/01/27 08:25:12;;;;;;;18.88;12.32;;;;;;;;;;5090456;28;20193;-76
2022/01/27 08:27:41;;;;;;;21.20;14.50;;;;;;;;;;5082175;28;20581;-75
2022/01/27 08:30:09;;;;;;;21.00;12.70;;;;;;;;;;5070723;28;20202;-75
2022/01/27 08:32:49;;;;;;;15.95;11.20;;;;;;;;;;5088668;28;20209;-75
2022/01/27 08:35:18;;;;;;;18.42;11.15;;;;;;;;;;5084411;28;20197;-75
2022/01/27 08:37:45;;;;;;;20.52;12.13;;;;;;;;;;5083682;28;20324;-76
2022/01/27 08:40:14;;;;;;;17.52;12.55;;;;;;;;;;5090711;28;20215;-75
2022/01/27 08:42:41;;;;;;;18.83;12.95;;;;;;;;;;5073144;28;20201;-75
2022/01/27 08:45:09;;;;;;;18.98;12.57;;;;;;;;;;5085968;28;20216;-76
2022/01/27 08:47:37;;;;;;;20.77;12.38;;;;;;;;;;5088472;28;20197;-76
2022/01/27 08:50:05;;;;;;;18.60;11.85;;;;;;;;;;5081347;28;20239;-75
2022/01/27 08:52:32;;;;;;;22.85;13.63;;;;;;;;;;5087089;28;20241;-75
2022/01/27 08:54:59;;;;;;;21.73;12.98;;;;;;;;;;5076873;28;20198;-76
2022/01/27 08:57:26;;;;;;;25.73;11.43;;;;;;;;;;5076699;28;20194;-75
2022/01/27 08:59:54;;;;;;;19.30;11.98;;;;;;;;;;5081446;28;20201;-75
2022/01/27 09:02:21;;;;;;;16.58;11.93;;;;;;;;;;5090738;28;20189;-75
2022/01/27 09:04:50;;;;;;;15.73;12.48;;;;;;;;;;5083544;28;20270;-76
2022/01/27 09:07:17;;;;;;;19.13;12.27;;;;;;;;;;5081531;28;20607;-75
2022/01/27 09:09:44;;;;;;;18.27;12.50;;;;;;;;;;5071061;28;20561;-75
2022/01/27 09:12:12;;;;;;;18.80;11.70;;;;;;;;;;5071079;28;20232;-75
2022/01/27 09:14:41;;;;;;;22.88;12.07;;;;;;;;;;5088505;28;20247;-74
2022/01/27 09:17:08;;;;;;;14.10;10.73;;;;;;;;;;5078675;28;20193;-76
2022/01/27 09:19:38;;;;;;;19.38;11.77;;;;;;;;;;5080740;28;20428;-76
2022/01/27 09:22:08;;;;;;;18.80;12.30;;;;;;;;;;5084705;28;20656;-75
2022/01/27 09:24:39;;;;;;;17.85;11.48;;;;;;;;;;5086637;28;20197;-75
2022/01/27 09:27:07;;;;;;;15.07;11.13;;;;;;;;;;5085910;28;20239;-76
2022/01/27 09:29:34;;;;;;;19.10;11.88;;;;;;;;;;5087914;28;20194;-76
2022/01/27 09:32:02;;;;;;;16.85;11.70;;;;;;;;;;5082973;28;20198;-75
2022/01/27 09:34:29;;;;;;;18.83;13.32;;;;;;;;;;5072575;28;20718;-75
2022/01/27 09:36:57;;;;;;;17.48;13.27;;;;;;;;;;5078966;28;20570;-75
2022/01/27 09:39:26;;;;;;;20.08;14.00;;;;;;;;;;5093728;28;20278;-76
2022/01/27 09:41:55;;;;;;;20.95;14.23;;;;;;;;;;5093156;28;20210;-76
2022/01/27 09:44:26;;;;;;;21.85;15.10;;;;;;;;;;5081223;28;20198;-77
2022/01/27 09:46:55;;;;;;;15.25;11.93;;;;;;;;;;5087444;28;20553;-76
2022/01/27 09:49:31;;;;;;;19.42;12.73;;;;;;;;;;5092298;28;20182;-77
2022/01/27 09:51:59;;;;;;;16.55;13.32;;;;;;;;;;5089575;28;20206;-76
2022/01/27 09:54:27;;;;;;;20.10;14.57;;;;;;;;;;5075296;28;20251;-75
2022/01/27 09:56:54;;;;;;;19.33;14.50;;;;;;;;;;5084483;28;20573;-76
2022/01/27 09:59:22;;;;;;;22.80;13.57;;;;;;;;;;5088041;28;20308;-76
2022/01/27 10:02:00;;;;;;;18.27;13.40;;;;;;;;;;5095249;28;20567;-76
2022/01/27 10:04:43;;;;;;;20.63;13.45;;;;;;;;;;5072881;28;20198;-75
2022/01/27 10:07:10;;;;;;;16.30;13.40;;;;;;;;;;5082470;28;20201;-75
2022/01/27 10:09:39;;;;;;;17.58;12.65;;;;;;;;;;5093753;28;20193;-75
2022/01/27 10:12:07;;;;;;;21.75;14.85;;;;;;;;;;5091060;28;20557;-76
2022/01/27 10:14:38;;;;;;;19.90;15.35;;;;;;;;;;5073769;28;20561;-75
2022/01/27 10:17:08;;;;;;;19.13;14.25;;;;;;;;;;5074230;28;20577;-77
2022/01/27 10:19:36;;;;;;;19.95;14.45;;;;;;;;;;5072968;28;20217;-76
2022/01/27 10:22:04;;;;;;;18.02;13.35;;;;;;;;;;5073902;28;20307;-76
2022/01/27 10:24:32;;;;;;;18.35;14.48;;;;;;;;;;5074055;28;20187;-76
2022/01/27 10:27:21;;;;;;;15.70;12.93;;;;;;;;;;5074670;28;20649;-76
2022/01/27 10:30:03;;;;;;;20.38;13.00;;;;;;;;;;5093144;28;20225;-75
2022/01/27 10:32:37;;;;;;;18.00;13.65;;;;;;;;;;5089964;28;20202;-75
2022/01/27 10:35:05;;;;;;;22.05;15.75;;;;;;;;;;5090294;28;20204;-75
2022/01/27 10:37:52;;;;;;;17.73;13.43;;;;;;;;;;5074219;28;20190;-75
2022/01/27 10:40:21;;;;;;;19.88;14.88;;;;;;;;;;5074063;28;20308;-76
2022/01/27 10:43:00;;;;;;;16.42;13.75;;;;;;;;;;5079755;28;20285;-74
2022/01/27 10:45:27;;;;;;;22.33;15.73;;;;;;;;;;5086603;28;20251;-75
2022/01/27 10:48:06;;;;;;;17.90;13.30;;;;;;;;;;5087435;28;20194;-75
2022/01/27 10:50:47;;;;;;;18.00;13.85;;;;;;;;;;5075587;28;20209;-76
2022/01/27 10:53:14;;;;;;;17.08;14.57;;;;;;;;;;5079535;28;20198;-75
2022/01/27 10:55:41;;;;;;;20.67;15.98;;;;;;;;;;5079534;28;20209;-75
2022/01/27 10:58:23;;;;;;;18.20;15.15;;;;;;;;;;5074829;28;20649;-76
2022/01/27 11:00:57;;;;;;;19.52;14.80;;;;;;;;;;5086163;28;20198;-75
2022/01/27 11:03:24;;;;;;;18.85;14.27;;;;;;;;;;5086393;28;20194;-76
2022/01/27 11:05:51;;;;;;;18.70;14.82;;;;;;;;;;5086531;28;20190;-76
2022/01/27 11:08:20;;;;;;;19.05;14.02;;;;;;;;;;5079836;28;20194;-75
2022/01/27 11:10:49;;;;;;;19.33;14.77;;;;;;;;;;5082082;28;20204;-77
2022/01/27 11:13:22;;;;;;;15.73;13.25;;;;;;;;;;5087869;28;20679;-76
2022/01/27 11:15:49;;;;;;;17.88;14.80;;;;;;;;;;5085121;28;20209;-75
2022/01/27 11:18:19;;;;;;;17.77;12.82;;;;;;;;;;5093104;28;20204;-74
2022/01/27 11:20:54;;;;;;;19.88;12.55;;;;;;;;;;5085168;28;20687;-74
2022/01/27 11:23:46;;;;;;;17.55;14.40;;;;;;;;;;5085050;28;20181;-74
2022/01/27 11:26:16;;;;;;;16.42;13.23;;;;;;;;;;5072488;28;20198;-74
2022/01/27 11:28:44;;;;;;;18.05;14.45;;;;;;;;;;5080935;28;20190;-74
2022/01/27 11:31:18;;;;;;;14.43;12.23;;;;;;;;;;5075937;28;20202;-75
2022/01/27 11:33:59;;;;;;;13.52;11.85;;;;;;;;;;5082776;28;20300;-75
2022/01/27 11:36:27;;;;;;;16.25;12.50;;;;;;;;;;5086167;28;20342;-75
2022/01/27 11:38:54;;;;;;;14.18;11.73;;;;;;;;;;5084008;28;20688;-76
2022/01/27 11:41:37;;;;;;;14.23;11.70;;;;;;;;;;5092065;28;20679;-74
2022/01/27 11:44:28;;;;;;;13.68;11.23;;;;;;;;;;5078049;28;20190;-75
2022/01/27 11:47:17;;;;;;;13.75;11.65;;;;;;;;;;5087610;28;20200;-75
2022/01/27 11:49:54;;;;;;;13.13;10.70;;;;;;;;;;5090537;28;20275;-75
2022/01/27 11:52:22;;;;;;;15.02;11.55;;;;;;;;;;5072885;28;20712;-75
2022/01/27 11:54:49;;;;;;;12.13;10.88;;;;;;;;;;5086375;28;20656;-75
2022/01/27 11:57:31;;;;;;;13.60;10.30;;;;;;;;;;5085163;28;20205;-74
2022/01/27 12:00:08;;;;;;;11.02;9.85;;;;;;;;;;5081231;28;20468;-75
2022/01/27 12:02:50;;;;;;;11.85;9.27;;;;;;;;;;5074784;28;20194;-75
2022/01/27 12:05:19;;;;;;;13.65;11.25;;;;;;;;;;5072824;28;20255;-75
2022/01/27 12:08:00;;;;;;;11.65;8.82;;;;;;;;;;5090594;28;20201;-75
2022/01/27 12:10:39;;;;;;;12.50;9.93;;;;;;;;;;5070763;28;20190;-75
2022/01/27 12:13:38;;;;;;;11.73;10.15;;;;;;;;;;5072190;28;20565;-76
2022/01/27 12:16:24;;;;;;;11.52;10.32;;;;;;;;;;5073836;28;20580;-75
2022/01/27 12:18:58;;;;;;;10.88;9.75;;;;;;;;;;5071017;28;20709;-75
2022/01/27 12:21:35;;;;;;;12.20;10.73;;;;;;;;;;5076421;28;20288;-75
2022/01/27 12:24:21;;;;;;;13.50;12.15;;;;;;;;;;5091621;28;20197;-75
2022/01/27 12:26:48;;;;;;;13.18;9.95;;;;;;;;;;5084586;28;20553;-76
2022/01/27 12:29:22;;;;;;;12.48;10.23;;;;;;;;;;5080397;28;20610;-76
2022/01/27 12:31:49;;;;;;;18.95;11.05;;;;;;;;;;5086748;28;20610;-75
2022/01/27 12:34:16;;;;;;;9.75;8.75;;;;;;;;;;5085065;28;20631;-74
2022/01/27 12:36:56;;;;;;;11.07;9.93;;;;;;;;;;5080553;28;20228;-76
2022/01/27 12:39:24;;;;;;;12.38;10.07;;;;;;;;;;5081046;28;20242;-75
2022/01/27 12:41:51;;;;;;;9.65;8.65;;;;;;;;;;5074559;28;20565;-75
2022/01/27 12:44:18;;;;;;;9.88;8.90;;;;;;;;;;5083331;28;20568;-75
2022/01/27 12:47:04;;;;;;;11.60;9.73;;;;;;;;;;5086985;28;20561;-75
2022/01/27 12:49:36;;;;;;;11.40;8.55;;;;;;;;;;5076687;28;20244;-75
2022/01/27 12:52:07;;;;;;;9.35;8.45;;;;;;;;;;5082888;28;20201;-75
2022/01/27 12:54:35;;;;;;;9.95;8.95;;;;;;;;;;5076918;28;20204;-75
2022/01/27 12:57:02;;;;;;;10.30;8.57;;;;;;;;;;5076352;28;20671;-75
2022/01/27 12:59:33;;;;;;;8.75;7.85;;;;;;;;;;5079702;28;20713;-75
2022/01/27 13:02:01;;;;;;;11.07;8.82;;;;;;;;;;5081220;28;20240;-74
2022/01/27 13:04:28;;;;;;;10.55;8.98;;;;;;;;;;5082875;28;20194;-76
2022/01/27 13:06:56;;;;;;;10.13;9.07;;;;;;;;;;5073140;28;20230;-75
2022/01/27 13:09:26;;;;;;;9.63;8.45;;;;;;;;;;5068790;28;20202;-75
2022/01/27 13:11:55;;;;;;;9.43;8.52;;;;;;;;;;5074514;28;20638;-75
2022/01/27 13:14:22;;;;;;;8.63;7.30;;;;;;;;;;5086705;28;20198;-75
2022/01/27 13:16:54;;;;;;;9.63;8.65;;;;;;;;;;5068978;28;20201;-75
2022/01/27 13:19:25;;;;;;;8.93;8.00;;;;;;;;;;5086985;28;20205;-75
2022/01/27 13:22:02;;;;;;;10.70;8.43;;;;;;;;;;5078452;28;20611;-75
2022/01/27 13:24:33;;;;;;;9.07;7.93;;;;;;;;;;5084757;28;20193;-75
2022/01/27 13:27:07;;;;;;;9.07;8.10;;;;;;;;;;5083098;28;20259;-75
2022/01/27 13:29:40;;;;;;;8.10;7.28;;;;;;;;;;5081020;28;20205;-75
2022/01/27 13:32:07;;;;;;;9.85;8.50;;;;;;;;;;5082701;28;20391;-76
2022/01/27 13:34:35;;;;;;;9.20;8.30;;;;;;;;;;5071877;28;20239;-75
2022/01/27 13:37:02;;;;;;;8.48;6.80;;;;;;;;;;5069498;28;20205;-75
2022/01/27 13:41:16;;;;;;;9.80;8.73;;;;;;;;;;5085931;28;20703;-75
2022/01/27 13:42:24;;;;;;;8.50;7.60;;;;;;;;;;5075613;28;20208;-75
2022/01/27 13:44:53;;;;;;;11.07;9.77;;;;;;;;;;5087070;28;20252;-75
2022/01/27 13:47:25;;;;;;;8.52;7.63;;;;;;;;;;5073466;28;20278;-76
2022/01/27 13:49:52;;;;;;;9.68;8.35;;;;;;;;;;5075362;28;20225;-76
2022/01/27 13:52:20;;;;;;;8.93;7.75;;;;;;;;;;5086038;28;20274;-75
2022/01/27 13:54:49;;;;;;;9.75;7.68;;;;;;;;;;5080488;28;20695;-77
2022/01/27 13:57:18;;;;;;;10.98;8.48;;;;;;;;;;5074179;28;20198;-75
2022/01/27 13:59:48;;;;;;;8.45;7.65;;;;;;;;;;5085394;28;20213;-75
2022/01/27 14:02:16;;;;;;;10.15;7.75;;;;;;;;;;5072421;28;20199;-75
2022/01/27 14:04:44;;;;;;;9.18;7.80;;;;;;;;;;5065619;28;20258;-76
2022/01/27 14:07:11;;;;;;;8.68;7.78;;;;;;;;;;5072014;28;20205;-76
2022/01/27 14:09:41;;;;;;;7.97;7.18;;;;;;;;;;5067966;28;20484;-75
2022/01/27 14:12:10;;;;;;;9.13;8.23;;;;;;;;;;5068613;28;20206;-76
2022/01/27 14:14:45;;;;;;;8.13;7.30;;;;;;;;;;5070893;28;20222;-76
2022/01/27 14:17:18;;;;;;;8.82;7.15;;;;;;;;;;5071265;28;20277;-75
2022/01/27 14:19:45;;;;;;;9.85;8.85;;;;;;;;;;5071819;28;20226;-76
2022/01/27 14:22:15;;;;;;;10.27;7.72;;;;;;;;;;5070649;28;20692;-75
2022/01/27 14:24:57;;;;;;;7.82;7.10;;;;;;;;;;5074919;28;20201;-77
2022/01/27 14:27:33;;;;;;;8.50;7.70;;;;;;;;;;5075571;28;20688;-76
2022/01/27 14:30:00;;;;;;;9.30;7.20;;;;;;;;;;5071018;28;20634;-76
2022/01/27 14:32:27;;;;;;;8.52;7.00;;;;;;;;;;5074106;28;20219;-75
2022/01/27 14:34:54;;;;;;;8.90;7.68;;;;;;;;;;5073423;28;20197;-74
2022/01/27 14:37:21;;;;;;;7.68;6.97;;;;;;;;;;5075271;28;20193;-75
2022/01/27 14:39:48;;;;;;;7.97;7.18;;;;;;;;;;5074238;28;20446;-75
2022/01/27 14:42:18;;;;;;;12.68;7.80;;;;;;;;;;5077570;28;20198;-77
2022/01/27 14:44:46;;;;;;;7.47;6.82;;;;;;;;;;5074754;28;20224;-76
2022/01/27 14:47:13;;;;;;;8.55;7.28;;;;;;;;;;5074541;28;20204;-75
2022/01/27 14:49:43;;;;;;;7.78;6.57;;;;;;;;;;5074456;28;20205;-77
2022/01/27 14:52:13;;;;;;;12.60;7.57;;;;;;;;;;5075039;28;20631;-77
2022/01/27 14:54:40;;;;;;;7.80;7.00;;;;;;;;;;5066067;28;20301;-76
2022/01/27 14:57:10;;;;;;;8.05;7.18;;;;;;;;;;5069958;28;20208;-77
2022/01/27 14:59:39;;;;;;;7.43;6.72;;;;;;;;;;5072302;28;20202;-77